Terminal Aerodrome Forecast
Issued by NWS

Home | Current Version | Previous Version | Text Only | Print | Product List | Glossary On
Versions: 1 2 3 4 5 6 7 8 9 10 11 12
000
FTUS44 KTSA 291720
TAFFYV
TAF
KFYV 291720Z 2918/3018 24005KT P6SM FEW250
     FM300100 00000KT P6SM SCT250
     FM300900 00000KT 5SM BR SCT250=

USA.gov is the U.S. government's official web portal to all federal, state and local government web resources and services.